Weather at Aioun el Atrouss Airport

Public forecast

Using degrees Celsius for public forecast. Weather courtesy of forecast.io.

Closest aviation weather report (METAR) to Aioun el Atrouss Airport

Report is more than 6 hours old.

Closest report is Nioro du Sahel Airport, 88.5 nm (163.9 km) S.

2022/11/14 15:00 (retrieved 2 years ago)

GANR 141500Z 12004KT CAVOK 37/12 Q1011

Closest aviation forecast (TAF) to Aioun el Atrouss Airport

Forecast is more than 12 hours old.

Closest forecast is Nouakchott–Oumtounsy International Airport, 375.0 nm (694.5 km) WNW.

2023/02/22 18:00 (retrieved 1 year ago)

TAF GQNO 221700Z 2218/2324 35014KT 8000 NSC